sensor_id;sensor_type;location;lat;lon;timestamp;P1;durP1;ratioP1;P2;durP2;ratioP2
16998;SDS011;10211;49.476;11.010;2023-03-31T00:00:10;2.97;;;1.23;;
16998;SDS011;10211;49.476;11.010;2023-03-31T00:02:38;3.53;;;2.07;;
16998;SDS011;10211;49.476;11.010;2023-03-31T00:05:06;4.77;;;1.27;;
16998;SDS011;10211;49.476;11.010;2023-03-31T00:07:33;4.93;;;1.57;;
16998;SDS011;10211;49.476;11.010;2023-03-31T00:10:02;4.03;;;1.63;;
16998;SDS011;10211;49.476;11.010;2023-03-31T00:12:30;4.07;;;1.60;;
16998;SDS011;10211;49.476;11.010;2023-03-31T00:14:57;2.47;;;1.13;;
16998;SDS011;10211;49.476;11.010;2023-03-31T00:17:24;3.80;;;1.47;;
16998;SDS011;10211;49.476;11.010;2023-03-31T00:19:50;1.97;;;1.27;;
16998;SDS011;10211;49.476;11.010;2023-03-31T00:22:17;3.80;;;1.30;;
16998;SDS011;10211;49.476;11.010;2023-03-31T00:24:46;3.37;;;1.63;;
16998;SDS011;10211;49.476;11.010;2023-03-31T00:27:13;5.50;;;2.07;;
16998;SDS011;10211;49.476;11.010;2023-03-31T00:29:41;4.63;;;1.33;;
16998;SDS011;10211;49.476;11.010;2023-03-31T00:32:09;4.30;;;1.50;;
16998;SDS011;10211;49.476;11.010;2023-03-31T00:34:38;4.00;;;1.67;;
16998;SDS011;10211;49.476;11.010;2023-03-31T00:37:05;2.93;;;1.57;;
16998;SDS011;10211;49.476;11.010;2023-03-31T00:39:34;2.67;;;1.37;;
16998;SDS011;10211;49.476;11.010;2023-03-31T00:42:01;3.77;;;1.50;;
16998;SDS011;10211;49.476;11.010;2023-03-31T00:44:28;4.07;;;1.43;;
16998;SDS011;10211;49.476;11.010;2023-03-31T00:47:00;4.03;;;1.50;;
16998;SDS011;10211;49.476;11.010;2023-03-31T00:49:32;3.40;;;1.70;;
16998;SDS011;10211;49.476;11.010;2023-03-31T00:52:03;5.30;;;1.93;;
16998;SDS011;10211;49.476;11.010;2023-03-31T00:54:32;2.07;;;1.40;;
16998;SDS011;10211;49.476;11.010;2023-03-31T00:57:00;4.30;;;1.70;;
16998;SDS011;10211;49.476;11.010;2023-03-31T00:59:31;4.93;;;1.70;;
16998;SDS011;10211;49.476;11.010;2023-03-31T01:02:03;1.57;;;1.37;;
16998;SDS011;10211;49.476;11.010;2023-03-31T01:04:32;3.57;;;1.33;;
16998;SDS011;10211;49.476;11.010;2023-03-31T01:07:02;3.80;;;1.57;;
16998;SDS011;10211;49.476;11.010;2023-03-31T01:09:33;11.80;;;2.03;;
16998;SDS011;10211;49.476;11.010;2023-03-31T01:12:02;3.10;;;1.60;;
16998;SDS011;10211;49.476;11.010;2023-03-31T01:14:33;3.33;;;1.43;;
16998;SDS011;10211;49.476;11.010;2023-03-31T01:17:00;4.80;;;1.97;;
16998;SDS011;10211;49.476;11.010;2023-03-31T01:19:34;4.73;;;1.57;;
16998;SDS011;10211;49.476;11.010;2023-03-31T01:22:23;2.07;;;1.20;;
16998;SDS011;10211;49.476;11.010;2023-03-31T01:28:14;4.20;;;1.67;;
16998;SDS011;10211;49.476;11.010;2023-03-31T01:31:02;3.33;;;1.43;;
16998;SDS011;10211;49.476;11.010;2023-03-31T01:37:04;5.57;;;1.80;;
16998;SDS011;10211;49.476;11.010;2023-03-31T01:42:55;6.37;;;2.10;;
16998;SDS011;10211;49.476;11.010;2023-03-31T01:45:28;4.13;;;2.43;;
16998;SDS011;10211;49.476;11.010;2023-03-31T01:48:04;4.37;;;1.80;;
16998;SDS011;10211;49.476;11.010;2023-03-31T01:50:37;2.93;;;1.70;;
16998;SDS011;10211;49.476;11.010;2023-03-31T01:53:11;3.13;;;2.00;;
16998;SDS011;10211;49.476;11.010;2023-03-31T01:55:47;3.43;;;1.83;;
16998;SDS011;10211;49.476;11.010;2023-03-31T01:58:23;4.00;;;1.67;;
16998;SDS011;10211;49.476;11.010;2023-03-31T02:00:53;4.67;;;2.30;;
16998;SDS011;10211;49.476;11.010;2023-03-31T02:03:27;3.77;;;1.67;;
16998;SDS011;10211;49.476;11.010;2023-03-31T02:05:59;3.80;;;1.50;;
16998;SDS011;10211;49.476;11.010;2023-03-31T02:08:30;6.20;;;1.53;;
16998;SDS011;10211;49.476;11.010;2023-03-31T02:11:03;3.80;;;1.87;;
16998;SDS011;10211;49.476;11.010;2023-03-31T02:13:30;2.40;;;1.53;;
16998;SDS011;10211;49.476;11.010;2023-03-31T02:15:59;6.37;;;1.97;;
16998;SDS011;10211;49.476;11.010;2023-03-31T02:18:31;6.37;;;1.70;;
16998;SDS011;10211;49.476;11.010;2023-03-31T02:21:02;2.70;;;1.57;;
16998;SDS011;10211;49.476;11.010;2023-03-31T02:23:31;2.77;;;1.27;;
16998;SDS011;10211;49.476;11.010;2023-03-31T02:26:00;2.67;;;1.53;;
16998;SDS011;10211;49.476;11.010;2023-03-31T02:28:31;6.63;;;1.60;;
16998;SDS011;10211;49.476;11.010;2023-03-31T02:31:11;2.33;;;1.50;;
16998;SDS011;10211;49.476;11.010;2023-03-31T02:33:46;4.73;;;1.60;;
16998;SDS011;10211;49.476;11.010;2023-03-31T02:36:13;5.30;;;1.70;;
16998;SDS011;10211;49.476;11.010;2023-03-31T02:38:42;3.37;;;1.93;;
16998;SDS011;10211;49.476;11.010;2023-03-31T02:41:12;2.83;;;1.53;;
16998;SDS011;10211;49.476;11.010;2023-03-31T02:43:41;4.47;;;1.63;;
16998;SDS011;10211;49.476;11.010;2023-03-31T02:46:07;4.57;;;1.33;;
16998;SDS011;10211;49.476;11.010;2023-03-31T02:48:36;2.27;;;1.27;;
16998;SDS011;10211;49.476;11.010;2023-03-31T02:51:10;1.67;;;0.90;;
16998;SDS011;10211;49.476;11.010;2023-03-31T02:54:04;5.13;;;1.40;;
16998;SDS011;10211;49.476;11.010;2023-03-31T02:56:53;4.13;;;1.60;;
16998;SDS011;10211;49.476;11.010;2023-03-31T02:59:42;4.03;;;1.60;;
16998;SDS011;10211;49.476;11.010;2023-03-31T03:02:16;2.83;;;1.50;;
16998;SDS011;10211;49.476;11.010;2023-03-31T03:04:58;1.37;;;1.10;;
16998;SDS011;10211;49.476;11.010;2023-03-31T03:07:41;4.50;;;2.00;;
16998;SDS011;10211;49.476;11.010;2023-03-31T03:10:15;9.47;;;1.90;;
16998;SDS011;10211;49.476;11.010;2023-03-31T03:12:48;9.23;;;1.63;;
16998;SDS011;10211;49.476;11.010;2023-03-31T03:15:25;5.00;;;1.40;;
16998;SDS011;10211;49.476;11.010;2023-03-31T03:17:56;5.37;;;1.57;;
16998;SDS011;10211;49.476;11.010;2023-03-31T03:20:24;3.03;;;1.10;;
16998;SDS011;10211;49.476;11.010;2023-03-31T03:22:51;4.07;;;1.27;;
16998;SDS011;10211;49.476;11.010;2023-03-31T03:25:18;2.40;;;0.97;;
16998;SDS011;10211;49.476;11.010;2023-03-31T03:27:45;1.93;;;1.20;;
16998;SDS011;10211;49.476;11.010;2023-03-31T03:30:12;4.00;;;1.23;;
16998;SDS011;10211;49.476;11.010;2023-03-31T03:32:40;5.23;;;1.40;;
16998;SDS011;10211;49.476;11.010;2023-03-31T03:35:08;2.90;;;1.50;;
16998;SDS011;10211;49.476;11.010;2023-03-31T03:37:36;2.97;;;1.30;;
16998;SDS011;10211;49.476;11.010;2023-03-31T03:40:03;4.20;;;1.60;;
16998;SDS011;10211;49.476;11.010;2023-03-31T03:42:31;2.17;;;1.47;;
16998;SDS011;10211;49.476;11.010;2023-03-31T03:44:57;5.23;;;1.40;;
16998;SDS011;10211;49.476;11.010;2023-03-31T03:47:25;2.67;;;1.67;;
16998;SDS011;10211;49.476;11.010;2023-03-31T03:49:53;2.67;;;1.83;;
16998;SDS011;10211;49.476;11.010;2023-03-31T03:52:20;3.20;;;1.40;;
16998;SDS011;10211;49.476;11.010;2023-03-31T03:54:47;2.90;;;1.43;;
16998;SDS011;10211;49.476;11.010;2023-03-31T03:57:13;6.53;;;1.30;;
16998;SDS011;10211;49.476;11.010;2023-03-31T03:59:40;6.33;;;1.60;;
16998;SDS011;10211;49.476;11.010;2023-03-31T04:02:07;1.17;;;0.90;;
16998;SDS011;10211;49.476;11.010;2023-03-31T04:04:34;5.03;;;1.80;;
16998;SDS011;10211;49.476;11.010;2023-03-31T04:07:02;5.30;;;1.50;;
16998;SDS011;10211;49.476;11.010;2023-03-31T04:09:29;2.27;;;1.70;;
16998;SDS011;10211;49.476;11.010;2023-03-31T04:11:55;4.27;;;1.93;;
16998;SDS011;10211;49.476;11.010;2023-03-31T04:14:22;3.30;;;1.90;;
16998;SDS011;10211;49.476;11.010;2023-03-31T04:16:49;7.10;;;1.70;;
16998;SDS011;10211;49.476;11.010;2023-03-31T04:19:16;3.93;;;1.77;;
16998;SDS011;10211;49.476;11.010;2023-03-31T04:21:45;5.40;;;1.63;;
16998;SDS011;10211;49.476;11.010;2023-03-31T04:24:16;5.77;;;1.40;;
16998;SDS011;10211;49.476;11.010;2023-03-31T04:26:45;4.87;;;1.43;;
16998;SDS011;10211;49.476;11.010;2023-03-31T04:29:14;3.70;;;1.90;;
16998;SDS011;10211;49.476;11.010;2023-03-31T04:31:43;2.60;;;1.60;;
16998;SDS011;10211;49.476;11.010;2023-03-31T04:34:11;6.83;;;1.70;;
16998;SDS011;10211;49.476;11.010;2023-03-31T04:36:39;5.53;;;1.60;;
16998;SDS011;10211;49.476;11.010;2023-03-31T04:39:11;7.30;;;2.03;;
16998;SDS011;10211;49.476;11.010;2023-03-31T04:41:39;5.77;;;1.63;;
16998;SDS011;10211;49.476;11.010;2023-03-31T04:44:06;3.37;;;1.60;;
16998;SDS011;10211;49.476;11.010;2023-03-31T04:46:33;2.10;;;1.47;;
16998;SDS011;10211;49.476;11.010;2023-03-31T04:49:00;11.20;;;2.30;;
16998;SDS011;10211;49.476;11.010;2023-03-31T04:51:29;7.53;;;1.87;;
16998;SDS011;10211;49.476;11.010;2023-03-31T04:53:56;8.00;;;2.00;;
16998;SDS011;10211;49.476;11.010;2023-03-31T04:56:23;7.10;;;2.00;;
16998;SDS011;10211;49.476;11.010;2023-03-31T04:58:51;5.13;;;1.60;;
16998;SDS011;10211;49.476;11.010;2023-03-31T05:01:17;3.47;;;2.17;;
16998;SDS011;10211;49.476;11.010;2023-03-31T05:03:44;5.53;;;1.77;;
16998;SDS011;10211;49.476;11.010;2023-03-31T05:06:11;4.33;;;1.70;;
16998;SDS011;10211;49.476;11.010;2023-03-31T05:08:38;5.53;;;1.80;;
16998;SDS011;10211;49.476;11.010;2023-03-31T05:11:05;8.30;;;2.13;;
16998;SDS011;10211;49.476;11.010;2023-03-31T05:13:32;3.90;;;2.03;;
16998;SDS011;10211;49.476;11.010;2023-03-31T05:16:05;4.13;;;3.23;;
16998;SDS011;10211;49.476;11.010;2023-03-31T05:18:32;10.10;;;3.63;;
16998;SDS011;10211;49.476;11.010;2023-03-31T05:21:07;4.83;;;2.20;;
16998;SDS011;10211;49.476;11.010;2023-03-31T05:23:35;9.00;;;1.87;;
16998;SDS011;10211;49.476;11.010;2023-03-31T05:26:02;7.23;;;1.93;;
16998;SDS011;10211;49.476;11.010;2023-03-31T05:28:29;2.87;;;1.40;;
16998;SDS011;10211;49.476;11.010;2023-03-31T05:30:57;4.03;;;2.00;;
16998;SDS011;10211;49.476;11.010;2023-03-31T05:33:25;6.20;;;2.60;;
16998;SDS011;10211;49.476;11.010;2023-03-31T05:35:52;6.30;;;2.33;;
16998;SDS011;10211;49.476;11.010;2023-03-31T05:38:19;7.03;;;1.83;;
16998;SDS011;10211;49.476;11.010;2023-03-31T05:40:46;7.63;;;2.80;;
16998;SDS011;10211;49.476;11.010;2023-03-31T05:43:13;7.20;;;2.40;;
16998;SDS011;10211;49.476;11.010;2023-03-31T05:45:40;4.37;;;2.23;;
16998;SDS011;10211;49.476;11.010;2023-03-31T05:48:06;4.87;;;2.10;;
16998;SDS011;10211;49.476;11.010;2023-03-31T05:50:34;3.23;;;2.47;;
16998;SDS011;10211;49.476;11.010;2023-03-31T05:53:01;7.40;;;2.20;;
16998;SDS011;10211;49.476;11.010;2023-03-31T05:55:28;7.17;;;2.50;;
16998;SDS011;10211;49.476;11.010;2023-03-31T05:57:55;3.43;;;2.07;;
16998;SDS011;10211;49.476;11.010;2023-03-31T06:00:21;4.03;;;2.07;;
16998;SDS011;10211;49.476;11.010;2023-03-31T06:02:48;2.10;;;1.70;;
16998;SDS011;10211;49.476;11.010;2023-03-31T06:05:15;4.63;;;2.20;;
16998;SDS011;10211;49.476;11.010;2023-03-31T06:07:43;7.73;;;2.53;;
16998;SDS011;10211;49.476;11.010;2023-03-31T06:10:10;11.57;;;2.20;;
16998;SDS011;10211;49.476;11.010;2023-03-31T06:12:37;8.13;;;2.50;;
16998;SDS011;10211;49.476;11.010;2023-03-31T06:15:03;3.10;;;1.93;;
16998;SDS011;10211;49.476;11.010;2023-03-31T06:17:31;8.13;;;2.13;;
16998;SDS011;10211;49.476;11.010;2023-03-31T06:19:57;4.20;;;2.30;;
16998;SDS011;10211;49.476;11.010;2023-03-31T06:22:24;9.90;;;2.03;;
16998;SDS011;10211;49.476;11.010;2023-03-31T06:24:52;8.33;;;2.30;;
16998;SDS011;10211;49.476;11.010;2023-03-31T06:27:19;7.97;;;2.60;;
16998;SDS011;10211;49.476;11.010;2023-03-31T06:29:46;7.07;;;2.47;;
16998;SDS011;10211;49.476;11.010;2023-03-31T06:32:14;5.87;;;2.10;;
16998;SDS011;10211;49.476;11.010;2023-03-31T06:34:40;4.77;;;2.43;;
16998;SDS011;10211;49.476;11.010;2023-03-31T06:37:07;7.57;;;2.20;;
16998;SDS011;10211;49.476;11.010;2023-03-31T06:39:34;4.40;;;2.00;;
16998;SDS011;10211;49.476;11.010;2023-03-31T06:42:02;4.03;;;1.97;;
16998;SDS011;10211;49.476;11.010;2023-03-31T06:44:29;7.53;;;2.00;;
16998;SDS011;10211;49.476;11.010;2023-03-31T06:46:56;3.73;;;2.30;;
16998;SDS011;10211;49.476;11.010;2023-03-31T06:49:22;5.93;;;2.50;;
16998;SDS011;10211;49.476;11.010;2023-03-31T06:51:49;7.57;;;2.40;;
16998;SDS011;10211;49.476;11.010;2023-03-31T06:54:16;3.47;;;2.33;;
16998;SDS011;10211;49.476;11.010;2023-03-31T06:56:43;2.77;;;2.00;;
16998;SDS011;10211;49.476;11.010;2023-03-31T06:59:11;4.90;;;2.40;;
16998;SDS011;10211;49.476;11.010;2023-03-31T07:01:39;5.60;;;2.80;;
16998;SDS011;10211;49.476;11.010;2023-03-31T07:04:06;6.70;;;2.90;;
16998;SDS011;10211;49.476;11.010;2023-03-31T07:06:33;9.00;;;3.53;;
16998;SDS011;10211;49.476;11.010;2023-03-31T07:09:00;8.03;;;2.67;;
16998;SDS011;10211;49.476;11.010;2023-03-31T07:11:28;4.13;;;2.90;;
16998;SDS011;10211;49.476;11.010;2023-03-31T07:13:55;4.80;;;2.87;;
16998;SDS011;10211;49.476;11.010;2023-03-31T07:16:23;8.17;;;3.30;;
16998;SDS011;10211;49.476;11.010;2023-03-31T07:18:50;4.70;;;3.10;;
16998;SDS011;10211;49.476;11.010;2023-03-31T07:21:18;5.37;;;2.93;;
16998;SDS011;10211;49.476;11.010;2023-03-31T07:23:45;7.27;;;4.17;;
16998;SDS011;10211;49.476;11.010;2023-03-31T07:26:12;12.33;;;4.27;;
16998;SDS011;10211;49.476;11.010;2023-03-31T07:28:39;9.57;;;3.93;;
16998;SDS011;10211;49.476;11.010;2023-03-31T07:31:12;9.73;;;4.17;;
16998;SDS011;10211;49.476;11.010;2023-03-31T07:33:40;10.63;;;4.17;;
16998;SDS011;10211;49.476;11.010;2023-03-31T07:36:07;7.10;;;4.30;;
16998;SDS011;10211;49.476;11.010;2023-03-31T07:38:35;12.27;;;4.70;;
16998;SDS011;10211;49.476;11.010;2023-03-31T07:41:02;8.57;;;4.67;;
16998;SDS011;10211;49.476;11.010;2023-03-31T07:43:28;9.20;;;4.63;;
16998;SDS011;10211;49.476;11.010;2023-03-31T07:45:55;7.70;;;4.57;;
16998;SDS011;10211;49.476;11.010;2023-03-31T07:48:22;11.43;;;4.37;;
16998;SDS011;10211;49.476;11.010;2023-03-31T07:50:50;5.57;;;3.73;;
16998;SDS011;10211;49.476;11.010;2023-03-31T07:53:17;8.27;;;4.27;;
16998;SDS011;10211;49.476;11.010;2023-03-31T07:55:43;6.80;;;4.40;;
16998;SDS011;10211;49.476;11.010;2023-03-31T07:58:11;13.70;;;5.03;;
16998;SDS011;10211;49.476;11.010;2023-03-31T08:00:38;12.13;;;4.50;;
16998;SDS011;10211;49.476;11.010;2023-03-31T08:03:05;16.40;;;6.30;;
16998;SDS011;10211;49.476;11.010;2023-03-31T08:05:32;7.37;;;5.30;;
16998;SDS011;10211;49.476;11.010;2023-03-31T08:08:00;11.30;;;5.53;;
16998;SDS011;10211;49.476;11.010;2023-03-31T08:10:26;12.40;;;5.40;;
16998;SDS011;10211;49.476;11.010;2023-03-31T08:12:53;12.17;;;5.63;;
16998;SDS011;10211;49.476;11.010;2023-03-31T08:15:20;8.97;;;4.73;;
16998;SDS011;10211;49.476;11.010;2023-03-31T08:17:47;8.40;;;5.53;;
16998;SDS011;10211;49.476;11.010;2023-03-31T08:20:14;7.20;;;5.40;;
16998;SDS011;10211;49.476;11.010;2023-03-31T08:22:41;11.93;;;5.83;;
16998;SDS011;10211;49.476;11.010;2023-03-31T08:25:09;7.00;;;4.93;;
16998;SDS011;10211;49.476;11.010;2023-03-31T08:27:36;5.93;;;5.00;;
16998;SDS011;10211;49.476;11.010;2023-03-31T08:30:05;17.53;;;6.20;;
16998;SDS011;10211;49.476;11.010;2023-03-31T08:32:33;8.97;;;5.50;;
16998;SDS011;10211;49.476;11.010;2023-03-31T08:35:00;11.97;;;5.47;;
16998;SDS011;10211;49.476;11.010;2023-03-31T08:37:27;9.07;;;4.57;;
16998;SDS011;10211;49.476;11.010;2023-03-31T08:39:55;10.50;;;5.37;;
16998;SDS011;10211;49.476;11.010;2023-03-31T08:42:26;11.87;;;5.27;;
16998;SDS011;10211;49.476;11.010;2023-03-31T08:45:00;6.20;;;4.50;;
16998;SDS011;10211;49.476;11.010;2023-03-31T08:47:30;7.27;;;4.90;;
16998;SDS011;10211;49.476;11.010;2023-03-31T08:49:59;9.10;;;4.83;;
16998;SDS011;10211;49.476;11.010;2023-03-31T08:52:31;8.07;;;4.53;;
16998;SDS011;10211;49.476;11.010;2023-03-31T08:55:02;7.50;;;4.20;;
16998;SDS011;10211;49.476;11.010;2023-03-31T08:57:34;9.43;;;4.80;;
16998;SDS011;10211;49.476;11.010;2023-03-31T09:00:12;9.80;;;6.03;;
16998;SDS011;10211;49.476;11.010;2023-03-31T09:02:41;6.73;;;5.27;;
16998;SDS011;10211;49.476;11.010;2023-03-31T09:05:21;8.47;;;4.57;;
16998;SDS011;10211;49.476;11.010;2023-03-31T09:08:03;8.87;;;5.23;;
16998;SDS011;10211;49.476;11.010;2023-03-31T09:10:40;7.30;;;4.70;;
16998;SDS011;10211;49.476;11.010;2023-03-31T09:13:35;10.03;;;4.70;;
16998;SDS011;10211;49.476;11.010;2023-03-31T09:16:30;9.13;;;4.27;;
16998;SDS011;10211;49.476;11.010;2023-03-31T09:19:00;11.90;;;4.70;;
16998;SDS011;10211;49.476;11.010;2023-03-31T09:21:29;8.20;;;4.27;;
16998;SDS011;10211;49.476;11.010;2023-03-31T09:23:59;8.83;;;3.67;;
16998;SDS011;10211;49.476;11.010;2023-03-31T09:26:33;6.60;;;3.60;;
16998;SDS011;10211;49.476;11.010;2023-03-31T09:29:06;5.37;;;3.80;;
16998;SDS011;10211;49.476;11.010;2023-03-31T09:31:42;8.20;;;4.20;;
16998;SDS011;10211;49.476;11.010;2023-03-31T09:34:12;5.37;;;4.13;;
16998;SDS011;10211;49.476;11.010;2023-03-31T09:36:40;10.00;;;4.30;;
16998;SDS011;10211;49.476;11.010;2023-03-31T09:39:09;7.73;;;3.83;;
16998;SDS011;10211;49.476;11.010;2023-03-31T09:41:38;4.83;;;4.07;;
16998;SDS011;10211;49.476;11.010;2023-03-31T09:44:11;4.83;;;3.80;;
16998;SDS011;10211;49.476;11.010;2023-03-31T09:46:50;3.40;;;3.10;;
16998;SDS011;10211;49.476;11.010;2023-03-31T09:49:18;3.47;;;3.07;;
16998;SDS011;10211;49.476;11.010;2023-03-31T09:51:47;3.97;;;3.00;;
16998;SDS011;10211;49.476;11.010;2023-03-31T09:54:20;4.97;;;3.67;;
16998;SDS011;10211;49.476;11.010;2023-03-31T09:56:53;3.63;;;2.30;;
16998;SDS011;10211;49.476;11.010;2023-03-31T09:59:22;2.83;;;2.07;;
16998;SDS011;10211;49.476;11.010;2023-03-31T10:01:56;2.80;;;1.57;;
16998;SDS011;10211;49.476;11.010;2023-03-31T10:04:27;2.83;;;1.70;;
16998;SDS011;10211;49.476;11.010;2023-03-31T10:06:55;3.73;;;1.43;;
16998;SDS011;10211;49.476;11.010;2023-03-31T10:09:24;2.93;;;1.63;;
16998;SDS011;10211;49.476;11.010;2023-03-31T10:11:56;3.03;;;1.40;;
16998;SDS011;10211;49.476;11.010;2023-03-31T10:14:31;4.70;;;1.63;;
16998;SDS011;10211;49.476;11.010;2023-03-31T10:17:04;3.90;;;1.57;;
16998;SDS011;10211;49.476;11.010;2023-03-31T10:19:32;3.13;;;1.20;;
16998;SDS011;10211;49.476;11.010;2023-03-31T10:22:00;1.77;;;1.53;;
16998;SDS011;10211;49.476;11.010;2023-03-31T10:24:35;5.83;;;2.13;;
16998;SDS011;10211;49.476;11.010;2023-03-31T10:27:03;2.10;;;1.37;;
16998;SDS011;10211;49.476;11.010;2023-03-31T10:29:33;5.57;;;1.47;;
16998;SDS011;10211;49.476;11.010;2023-03-31T10:32:03;5.10;;;1.37;;
16998;SDS011;10211;49.476;11.010;2023-03-31T10:34:34;3.23;;;1.67;;
16998;SDS011;10211;49.476;11.010;2023-03-31T10:37:06;4.57;;;1.40;;
16998;SDS011;10211;49.476;11.010;2023-03-31T10:39:36;6.83;;;1.90;;
16998;SDS011;10211;49.476;11.010;2023-03-31T10:42:03;2.60;;;1.50;;
16998;SDS011;10211;49.476;11.010;2023-03-31T10:44:31;3.27;;;1.27;;
16998;SDS011;10211;49.476;11.010;2023-03-31T10:47:05;3.03;;;1.00;;
16998;SDS011;10211;49.476;11.010;2023-03-31T10:49:42;4.63;;;1.47;;
16998;SDS011;10211;49.476;11.010;2023-03-31T10:52:14;1.70;;;0.97;;
16998;SDS011;10211;49.476;11.010;2023-03-31T10:54:48;5.17;;;1.30;;
16998;SDS011;10211;49.476;11.010;2023-03-31T10:57:26;4.87;;;1.73;;
16998;SDS011;10211;49.476;11.010;2023-03-31T11:00:07;6.20;;;1.30;;
16998;SDS011;10211;49.476;11.010;2023-03-31T11:02:51;3.73;;;1.27;;
16998;SDS011;10211;49.476;11.010;2023-03-31T11:05:29;3.90;;;1.17;;
16998;SDS011;10211;49.476;11.010;2023-03-31T11:08:07;2.60;;;1.27;;
16998;SDS011;10211;49.476;11.010;2023-03-31T11:10:52;2.70;;;1.00;;
16998;SDS011;10211;49.476;11.010;2023-03-31T11:13:28;4.37;;;1.40;;
16998;SDS011;10211;49.476;11.010;2023-03-31T11:16:04;2.50;;;1.20;;
16998;SDS011;10211;49.476;11.010;2023-03-31T11:18:43;1.73;;;1.03;;
16998;SDS011;10211;49.476;11.010;2023-03-31T11:21:21;3.20;;;1.20;;
16998;SDS011;10211;49.476;11.010;2023-03-31T11:23:57;4.97;;;1.00;;
16998;SDS011;10211;49.476;11.010;2023-03-31T11:26:32;2.40;;;1.20;;
16998;SDS011;10211;49.476;11.010;2023-03-31T11:29:14;2.37;;;1.40;;
16998;SDS011;10211;49.476;11.010;2023-03-31T11:31:56;2.77;;;0.97;;
16998;SDS011;10211;49.476;11.010;2023-03-31T11:34:49;1.73;;;1.00;;
16998;SDS011;10211;49.476;11.010;2023-03-31T11:37:40;2.93;;;0.93;;
16998;SDS011;10211;49.476;11.010;2023-03-31T11:40:27;1.67;;;0.83;;
16998;SDS011;10211;49.476;11.010;2023-03-31T11:43:04;4.00;;;0.90;;
16998;SDS011;10211;49.476;11.010;2023-03-31T11:45:36;1.33;;;1.20;;
16998;SDS011;10211;49.476;11.010;2023-03-31T11:48:12;1.60;;;0.90;;
16998;SDS011;10211;49.476;11.010;2023-03-31T11:50:43;1.97;;;0.93;;
16998;SDS011;10211;49.476;11.010;2023-03-31T11:53:13;2.77;;;0.87;;
16998;SDS011;10211;49.476;11.010;2023-03-31T11:55:42;1.57;;;0.90;;
16998;SDS011;10211;49.476;11.010;2023-03-31T11:58:15;2.40;;;0.80;;
16998;SDS011;10211;49.476;11.010;2023-03-31T12:00:45;1.57;;;0.70;;
16998;SDS011;10211;49.476;11.010;2023-03-31T12:03:18;3.00;;;0.80;;
16998;SDS011;10211;49.476;11.010;2023-03-31T12:05:48;4.57;;;1.50;;
16998;SDS011;10211;49.476;11.010;2023-03-31T12:08:21;2.30;;;0.80;;
16998;SDS011;10211;49.476;11.010;2023-03-31T12:10:54;2.40;;;1.00;;
16998;SDS011;10211;49.476;11.010;2023-03-31T12:13:30;2.07;;;0.90;;
16998;SDS011;10211;49.476;11.010;2023-03-31T12:16:03;2.00;;;0.90;;
16998;SDS011;10211;49.476;11.010;2023-03-31T12:18:37;3.70;;;0.80;;
16998;SDS011;10211;49.476;11.010;2023-03-31T12:21:06;3.40;;;0.80;;
16998;SDS011;10211;49.476;11.010;2023-03-31T12:23:34;4.30;;;2.83;;
16998;SDS011;10211;49.476;11.010;2023-03-31T12:26:05;2.20;;;0.87;;
16998;SDS011;10211;49.476;11.010;2023-03-31T12:28:42;1.90;;;1.00;;
16998;SDS011;10211;49.476;11.010;2023-03-31T12:31:11;3.60;;;0.80;;
16998;SDS011;10211;49.476;11.010;2023-03-31T12:33:47;1.17;;;0.60;;
16998;SDS011;10211;49.476;11.010;2023-03-31T12:36:22;1.63;;;0.70;;
16998;SDS011;10211;49.476;11.010;2023-03-31T12:39:09;1.30;;;0.60;;
16998;SDS011;10211;49.476;11.010;2023-03-31T12:41:44;1.83;;;0.57;;
16998;SDS011;10211;49.476;11.010;2023-03-31T12:44:30;1.77;;;0.80;;
16998;SDS011;10211;49.476;11.010;2023-03-31T12:53:03;3.23;;;0.70;;
16998;SDS011;10211;49.476;11.010;2023-03-31T12:55:36;1.13;;;0.90;;
16998;SDS011;10211;49.476;11.010;2023-03-31T13:01:06;1.77;;;0.67;;
16998;SDS011;10211;49.476;11.010;2023-03-31T13:09:43;1.57;;;0.50;;
16998;SDS011;10211;49.476;11.010;2023-03-31T13:12:13;1.40;;;0.60;;
16998;SDS011;10211;49.476;11.010;2023-03-31T13:14:42;1.07;;;0.60;;
16998;SDS011;10211;49.476;11.010;2023-03-31T13:17:11;2.37;;;0.60;;
16998;SDS011;10211;49.476;11.010;2023-03-31T13:19:49;1.87;;;0.43;;
16998;SDS011;10211;49.476;11.010;2023-03-31T13:22:31;2.93;;;0.83;;
16998;SDS011;10211;49.476;11.010;2023-03-31T13:28:13;0.80;;;0.40;;
16998;SDS011;10211;49.476;11.010;2023-03-31T13:30:58;1.23;;;0.50;;
16998;SDS011;10211;49.476;11.010;2023-03-31T13:33:30;1.70;;;0.70;;
16998;SDS011;10211;49.476;11.010;2023-03-31T13:38:58;1.30;;;0.70;;
16998;SDS011;10211;49.476;11.010;2023-03-31T13:41:36;1.30;;;0.60;;
16998;SDS011;10211;49.476;11.010;2023-03-31T13:47:30;1.37;;;0.77;;
16998;SDS011;10211;49.476;11.010;2023-03-31T13:52:58;3.13;;;0.60;;
16998;SDS011;10211;49.476;11.010;2023-03-31T13:55:37;2.07;;;0.93;;
16998;SDS011;10211;49.476;11.010;2023-03-31T14:01:20;4.20;;;0.80;;
16998;SDS011;10211;49.476;11.010;2023-03-31T14:04:04;1.63;;;0.70;;
16998;SDS011;10211;49.476;11.010;2023-03-31T14:06:43;7.33;;;1.10;;
16998;SDS011;10211;49.476;11.010;2023-03-31T14:09:18;1.47;;;0.53;;
16998;SDS011;10211;49.476;11.010;2023-03-31T14:11:50;2.43;;;0.90;;
16998;SDS011;10211;49.476;11.010;2023-03-31T14:14:17;2.87;;;0.97;;
16998;SDS011;10211;49.476;11.010;2023-03-31T14:16:44;3.97;;;1.17;;
16998;SDS011;10211;49.476;11.010;2023-03-31T14:19:30;2.77;;;0.80;;
16998;SDS011;10211;49.476;11.010;2023-03-31T14:22:10;2.53;;;0.63;;
16998;SDS011;10211;49.476;11.010;2023-03-31T14:24:43;1.87;;;0.80;;
16998;SDS011;10211;49.476;11.010;2023-03-31T14:27:20;1.77;;;0.63;;
16998;SDS011;10211;49.476;11.010;2023-03-31T14:29:58;2.23;;;0.90;;
16998;SDS011;10211;49.476;11.010;2023-03-31T14:32:33;3.70;;;0.87;;
16998;SDS011;10211;49.476;11.010;2023-03-31T14:35:11;5.13;;;0.80;;
16998;SDS011;10211;49.476;11.010;2023-03-31T14:37:53;2.20;;;0.87;;
16998;SDS011;10211;49.476;11.010;2023-03-31T14:40:21;1.70;;;0.70;;
16998;SDS011;10211;49.476;11.010;2023-03-31T14:42:50;3.43;;;0.60;;
16998;SDS011;10211;49.476;11.010;2023-03-31T14:45:18;0.83;;;0.50;;
16998;SDS011;10211;49.476;11.010;2023-03-31T14:47:52;1.80;;;0.50;;
16998;SDS011;10211;49.476;11.010;2023-03-31T14:50:20;2.00;;;0.67;;
16998;SDS011;10211;49.476;11.010;2023-03-31T14:52:47;3.33;;;0.90;;
16998;SDS011;10211;49.476;11.010;2023-03-31T14:55:15;1.27;;;0.60;;
16998;SDS011;10211;49.476;11.010;2023-03-31T14:57:43;3.20;;;0.60;;
16998;SDS011;10211;49.476;11.010;2023-03-31T15:00:18;0.50;;;0.40;;
16998;SDS011;10211;49.476;11.010;2023-03-31T15:02:50;2.33;;;0.93;;
16998;SDS011;10211;49.476;11.010;2023-03-31T15:05:19;0.60;;;0.50;;
16998;SDS011;10211;49.476;11.010;2023-03-31T15:07:51;3.30;;;0.80;;
16998;SDS011;10211;49.476;11.010;2023-03-31T15:10:21;1.30;;;0.70;;
16998;SDS011;10211;49.476;11.010;2023-03-31T15:12:48;0.90;;;0.50;;
16998;SDS011;10211;49.476;11.010;2023-03-31T15:15:18;1.63;;;0.60;;
16998;SDS011;10211;49.476;11.010;2023-03-31T15:17:46;2.70;;;0.50;;
16998;SDS011;10211;49.476;11.010;2023-03-31T15:20:20;3.77;;;0.90;;
16998;SDS011;10211;49.476;11.010;2023-03-31T15:22:52;2.17;;;0.60;;
16998;SDS011;10211;49.476;11.010;2023-03-31T15:25:20;1.47;;;0.80;;
16998;SDS011;10211;49.476;11.010;2023-03-31T15:27:49;4.33;;;0.77;;
16998;SDS011;10211;49.476;11.010;2023-03-31T15:30:20;1.53;;;0.80;;
16998;SDS011;10211;49.476;11.010;2023-03-31T15:32:49;3.17;;;0.50;;
16998;SDS011;10211;49.476;11.010;2023-03-31T15:35:19;0.97;;;0.50;;